sensor_id;sensor_type;location;lat;lon;timestamp;pressure;altitude;pressure_sealevel;temperature;humidity
56614;BME280;75854;35.670;139.690;2024-03-29T00:00:10;100258.76;;;14.42;71.91
56614;BME280;75854;35.670;139.690;2024-03-29T00:02:42;100260.84;;;14.19;72.73
56614;BME280;75854;35.670;139.690;2024-03-29T00:05:12;100253.44;;;13.82;72.20
56614;BME280;75854;35.670;139.690;2024-03-29T00:07:43;100258.72;;;14.60;71.15
56614;BME280;75854;35.670;139.690;2024-03-29T00:10:12;100263.00;;;13.89;71.60
56614;BME280;75854;35.670;139.690;2024-03-29T00:12:42;100249.93;;;14.09;72.43
56614;BME280;75854;35.670;139.690;2024-03-29T00:15:12;100233.48;;;14.50;71.88
56614;BME280;75854;35.670;139.690;2024-03-29T00:17:41;100224.68;;;14.56;72.49
56614;BME280;75854;35.670;139.690;2024-03-29T00:20:12;100230.33;;;14.25;72.91
56614;BME280;75854;35.670;139.690;2024-03-29T00:22:41;100213.60;;;14.19;73.02
56614;BME280;75854;35.670;139.690;2024-03-29T00:25:11;100214.13;;;14.38;72.62
56614;BME280;75854;35.670;139.690;2024-03-29T00:27:41;100178.68;;;14.47;72.48
56614;BME280;75854;35.670;139.690;2024-03-29T00:30:11;100190.02;;;14.68;71.88
56614;BME280;75854;35.670;139.690;2024-03-29T00:32:40;100188.73;;;15.11;70.81
56614;BME280;75854;35.670;139.690;2024-03-29T00:35:11;100163.25;;;14.81;71.06
56614;BME280;75854;35.670;139.690;2024-03-29T00:37:41;100155.27;;;14.52;72.22
56614;BME280;75854;35.670;139.690;2024-03-29T00:40:13;100167.90;;;14.75;73.22
56614;BME280;75854;35.670;139.690;2024-03-29T00:42:43;100160.72;;;14.69;72.55
56614;BME280;75854;35.670;139.690;2024-03-29T00:45:12;100136.61;;;14.50;72.65
56614;BME280;75854;35.670;139.690;2024-03-29T00:47:42;100132.09;;;14.75;71.88
56614;BME280;75854;35.670;139.690;2024-03-29T00:50:12;100098.47;;;14.42;72.60
56614;BME280;75854;35.670;139.690;2024-03-29T00:52:41;100112.14;;;14.77;71.94
56614;BME280;75854;35.670;139.690;2024-03-29T00:55:11;100113.15;;;15.02;71.46
56614;BME280;75854;35.670;139.690;2024-03-29T00:57:40;100085.29;;;14.72;71.94
56614;BME280;75854;35.670;139.690;2024-03-29T01:00:11;100078.98;;;15.25;71.41
56614;BME280;75854;35.670;139.690;2024-03-29T01:02:40;100074.20;;;14.93;71.37
56614;BME280;75854;35.670;139.690;2024-03-29T01:05:10;100086.22;;;14.94;70.70
56614;BME280;75854;35.670;139.690;2024-03-29T01:07:42;100062.01;;;14.81;71.05
56614;BME280;75854;35.670;139.690;2024-03-29T01:10:12;100050.33;;;15.21;71.33
56614;BME280;75854;35.670;139.690;2024-03-29T01:12:41;100051.01;;;15.18;71.20
56614;BME280;75854;35.670;139.690;2024-03-29T01:15:11;100034.77;;;15.49;70.13
56614;BME280;75854;35.670;139.690;2024-03-29T01:17:41;100035.20;;;15.54;70.04
56614;BME280;75854;35.670;139.690;2024-03-29T01:20:12;100035.87;;;16.00;69.94
56614;BME280;75854;35.670;139.690;2024-03-29T01:22:41;100025.67;;;15.89;69.17
56614;BME280;75854;35.670;139.690;2024-03-29T01:25:11;100041.09;;;15.66;69.28
56614;BME280;75854;35.670;139.690;2024-03-29T01:27:40;100047.34;;;15.62;69.66
56614;BME280;75854;35.670;139.690;2024-03-29T01:30:11;100052.28;;;15.88;69.90
56614;BME280;75854;35.670;139.690;2024-03-29T01:32:40;100039.48;;;15.79;69.78
56614;BME280;75854;35.670;139.690;2024-03-29T01:35:10;100032.72;;;15.61;69.71
56614;BME280;75854;35.670;139.690;2024-03-29T01:37:40;100014.64;;;15.70;70.01
56614;BME280;75854;35.670;139.690;2024-03-29T01:40:13;99992.09;;;15.77;69.51
56614;BME280;75854;35.670;139.690;2024-03-29T01:42:42;99997.66;;;16.02;70.08
56614;BME280;75854;35.670;139.690;2024-03-29T01:45:12;99977.37;;;15.67;69.35
56614;BME280;75854;35.670;139.690;2024-03-29T01:47:42;99969.21;;;15.88;70.23
56614;BME280;75854;35.670;139.690;2024-03-29T01:50:12;100001.59;;;16.46;69.99
56614;BME280;75854;35.670;139.690;2024-03-29T01:52:41;99985.39;;;15.83;70.16
56614;BME280;75854;35.670;139.690;2024-03-29T01:55:11;99987.42;;;15.85;70.64
56614;BME280;75854;35.670;139.690;2024-03-29T01:57:41;99991.33;;;15.88;70.38
56614;BME280;75854;35.670;139.690;2024-03-29T02:00:12;99978.39;;;15.85;71.13
56614;BME280;75854;35.670;139.690;2024-03-29T02:02:41;100018.09;;;16.00;70.40
56614;BME280;75854;35.670;139.690;2024-03-29T02:05:11;100000.03;;;16.45;69.92
56614;BME280;75854;35.670;139.690;2024-03-29T02:07:41;100011.79;;;16.10;70.10
56614;BME280;75854;35.670;139.690;2024-03-29T02:10:13;99988.85;;;15.94;69.76
56614;BME280;75854;35.670;139.690;2024-03-29T02:12:43;100000.25;;;16.53;68.24
56614;BME280;75854;35.670;139.690;2024-03-29T02:15:17;99995.08;;;16.10;69.06
56614;BME280;75854;35.670;139.690;2024-03-29T02:17:47;99972.60;;;16.36;69.59
56614;BME280;75854;35.670;139.690;2024-03-29T02:20:16;99977.55;;;15.70;69.92
56614;BME280;75854;35.670;139.690;2024-03-29T02:22:51;99983.27;;;16.42;69.83
56614;BME280;75854;35.670;139.690;2024-03-29T02:25:22;99971.64;;;16.24;69.91
56614;BME280;75854;35.670;139.690;2024-03-29T02:27:52;99962.40;;;16.93;70.11
56614;BME280;75854;35.670;139.690;2024-03-29T02:30:22;99953.26;;;16.26;69.39
56614;BME280;75854;35.670;139.690;2024-03-29T02:32:52;99944.39;;;16.51;69.74
56614;BME280;75854;35.670;139.690;2024-03-29T02:35:21;99942.15;;;16.24;70.42
56614;BME280;75854;35.670;139.690;2024-03-29T02:37:50;99952.48;;;16.72;69.50
56614;BME280;75854;35.670;139.690;2024-03-29T02:40:20;99951.67;;;16.58;69.36
56614;BME280;75854;35.670;139.690;2024-03-29T02:42:50;99935.04;;;16.53;69.72
56614;BME280;75854;35.670;139.690;2024-03-29T02:45:19;99926.36;;;16.77;68.29
56614;BME280;75854;35.670;139.690;2024-03-29T02:47:48;99938.98;;;16.94;67.73
56614;BME280;75854;35.670;139.690;2024-03-29T02:50:18;99923.75;;;16.49;68.99
56614;BME280;75854;35.670;139.690;2024-03-29T02:52:48;99939.08;;;16.69;68.24
56614;BME280;75854;35.670;139.690;2024-03-29T02:55:17;99933.82;;;16.26;68.53
56614;BME280;75854;35.670;139.690;2024-03-29T02:57:47;99948.76;;;16.70;68.02
56614;BME280;75854;35.670;139.690;2024-03-29T03:00:16;99941.95;;;16.30;68.19
56614;BME280;75854;35.670;139.690;2024-03-29T03:02:45;99929.90;;;16.81;67.55
56614;BME280;75854;35.670;139.690;2024-03-29T03:05:14;99941.25;;;16.34;68.11
56614;BME280;75854;35.670;139.690;2024-03-29T03:07:44;99948.61;;;16.83;67.12
56614;BME280;75854;35.670;139.690;2024-03-29T03:10:13;99962.62;;;16.50;66.76
56614;BME280;75854;35.670;139.690;2024-03-29T03:12:44;99951.28;;;17.23;67.67
56614;BME280;75854;35.670;139.690;2024-03-29T03:15:13;99940.96;;;16.77;67.09
56614;BME280;75854;35.670;139.690;2024-03-29T03:17:43;99948.19;;;16.49;67.33
56614;BME280;75854;35.670;139.690;2024-03-29T03:20:13;99945.29;;;16.67;67.21
56614;BME280;75854;35.670;139.690;2024-03-29T03:22:43;99937.05;;;17.29;66.44
56614;BME280;75854;35.670;139.690;2024-03-29T03:25:12;99946.61;;;17.02;65.74
56614;BME280;75854;35.670;139.690;2024-03-29T03:27:42;99940.71;;;17.04;65.93
56614;BME280;75854;35.670;139.690;2024-03-29T03:30:13;99943.23;;;17.42;66.44
56614;BME280;75854;35.670;139.690;2024-03-29T03:32:42;99933.83;;;17.27;66.08
56614;BME280;75854;35.670;139.690;2024-03-29T03:35:13;99934.30;;;17.54;65.48
56614;BME280;75854;35.670;139.690;2024-03-29T03:37:42;99939.75;;;17.69;65.50
56614;BME280;75854;35.670;139.690;2024-03-29T03:40:12;99926.69;;;17.92;64.83
56614;BME280;75854;35.670;139.690;2024-03-29T03:42:42;99922.40;;;17.61;65.51
56614;BME280;75854;35.670;139.690;2024-03-29T03:45:12;99909.81;;;17.73;65.55
56614;BME280;75854;35.670;139.690;2024-03-29T03:47:41;99916.11;;;17.60;65.06
56614;BME280;75854;35.670;139.690;2024-03-29T03:50:11;99908.71;;;17.37;66.02
56614;BME280;75854;35.670;139.690;2024-03-29T03:52:40;99909.59;;;17.76;65.18
56614;BME280;75854;35.670;139.690;2024-03-29T03:55:10;99900.78;;;17.98;65.00
56614;BME280;75854;35.670;139.690;2024-03-29T03:57:39;99893.82;;;18.23;63.90
56614;BME280;75854;35.670;139.690;2024-03-29T04:00:10;99881.21;;;18.00;63.12
56614;BME280;75854;35.670;139.690;2024-03-29T04:02:40;99877.88;;;18.06;62.87
56614;BME280;75854;35.670;139.690;2024-03-29T04:05:10;99875.15;;;18.79;62.40
56614;BME280;75854;35.670;139.690;2024-03-29T04:07:39;99869.50;;;18.89;61.87
56614;BME280;75854;35.670;139.690;2024-03-29T04:10:10;99875.91;;;18.57;62.16
56614;BME280;75854;35.670;139.690;2024-03-29T04:12:39;99889.72;;;18.60;61.44
56614;BME280;75854;35.670;139.690;2024-03-29T04:15:09;99903.33;;;18.69;61.41
56614;BME280;75854;35.670;139.690;2024-03-29T04:17:39;99909.23;;;18.58;61.83
56614;BME280;75854;35.670;139.690;2024-03-29T04:20:09;99904.91;;;18.60;61.37
56614;BME280;75854;35.670;139.690;2024-03-29T04:22:38;99934.65;;;18.22;61.02
56614;BME280;75854;35.670;139.690;2024-03-29T04:25:08;99952.09;;;19.06;61.27
56614;BME280;75854;35.670;139.690;2024-03-29T04:27:37;99963.34;;;18.83;61.38
56614;BME280;75854;35.670;139.690;2024-03-29T04:30:08;99960.14;;;18.58;61.49
56614;BME280;75854;35.670;139.690;2024-03-29T04:32:37;99945.73;;;19.01;61.06
56614;BME280;75854;35.670;139.690;2024-03-29T04:35:07;99934.03;;;18.84;60.19
56614;BME280;75854;35.670;139.690;2024-03-29T04:37:36;99931.09;;;19.11;59.27
56614;BME280;75854;35.670;139.690;2024-03-29T04:40:07;99932.15;;;19.29;59.11
56614;BME280;75854;35.670;139.690;2024-03-29T04:42:36;99925.86;;;19.03;58.74
56614;BME280;75854;35.670;139.690;2024-03-29T04:45:07;99933.90;;;19.23;58.43
56614;BME280;75854;35.670;139.690;2024-03-29T04:47:36;99936.27;;;18.95;58.94
56614;BME280;75854;35.670;139.690;2024-03-29T04:50:07;99935.46;;;18.94;58.36
56614;BME280;75854;35.670;139.690;2024-03-29T04:52:36;99941.70;;;19.61;57.53
56614;BME280;75854;35.670;139.690;2024-03-29T04:55:06;99945.09;;;19.14;58.39
56614;BME280;75854;35.670;139.690;2024-03-29T04:57:35;99952.24;;;19.41;57.55
56614;BME280;75854;35.670;139.690;2024-03-29T05:00:06;99950.43;;;19.35;57.42
56614;BME280;75854;35.670;139.690;2024-03-29T05:02:36;99945.36;;;19.57;56.39
56614;BME280;75854;35.670;139.690;2024-03-29T05:05:05;99939.50;;;19.46;56.69
56614;BME280;75854;35.670;139.690;2024-03-29T05:07:34;99933.13;;;19.51;56.75
56614;BME280;75854;35.670;139.690;2024-03-29T05:10:05;99924.88;;;19.35;57.20
56614;BME280;75854;35.670;139.690;2024-03-29T05:12:35;99928.92;;;19.13;55.85
56614;BME280;75854;35.670;139.690;2024-03-29T05:15:05;99934.72;;;19.45;56.42
56614;BME280;75854;35.670;139.690;2024-03-29T05:17:38;99930.57;;;19.44;56.26
56614;BME280;75854;35.670;139.690;2024-03-29T05:20:09;99931.92;;;19.57;55.15
56614;BME280;75854;35.670;139.690;2024-03-29T05:22:38;99937.26;;;19.73;55.83
56614;BME280;75854;35.670;139.690;2024-03-29T05:25:08;99937.96;;;19.77;56.07
56614;BME280;75854;35.670;139.690;2024-03-29T05:27:37;99932.06;;;19.81;55.28
56614;BME280;75854;35.670;139.690;2024-03-29T05:30:07;99930.33;;;20.01;54.70
56614;BME280;75854;35.670;139.690;2024-03-29T05:32:37;99921.47;;;20.03;54.88
56614;BME280;75854;35.670;139.690;2024-03-29T05:35:07;99923.39;;;19.87;55.43
56614;BME280;75854;35.670;139.690;2024-03-29T05:37:37;99917.23;;;20.09;53.59
56614;BME280;75854;35.670;139.690;2024-03-29T05:40:07;99914.93;;;19.57;54.94
56614;BME280;75854;35.670;139.690;2024-03-29T05:42:36;99903.91;;;19.37;55.81
56614;BME280;75854;35.670;139.690;2024-03-29T05:45:23;99906.26;;;19.66;55.20
56614;BME280;75854;35.670;139.690;2024-03-29T05:47:55;99906.84;;;19.48;55.01
56614;BME280;75854;35.670;139.690;2024-03-29T05:50:25;99902.02;;;19.33;55.35
56614;BME280;75854;35.670;139.690;2024-03-29T05:52:55;99900.11;;;19.12;55.67
56614;BME280;75854;35.670;139.690;2024-03-29T05:55:24;99900.73;;;19.26;56.68
56614;BME280;75854;35.670;139.690;2024-03-29T05:57:54;99906.02;;;19.27;55.45
56614;BME280;75854;35.670;139.690;2024-03-29T06:00:23;99904.83;;;19.22;55.96
56614;BME280;75854;35.670;139.690;2024-03-29T06:02:53;99898.45;;;19.36;54.68
56614;BME280;75854;35.670;139.690;2024-03-29T06:05:22;99907.30;;;19.43;55.27
56614;BME280;75854;35.670;139.690;2024-03-29T06:07:51;99911.68;;;19.84;54.10
56614;BME280;75854;35.670;139.690;2024-03-29T06:10:21;99913.29;;;19.28;54.59
56614;BME280;75854;35.670;139.690;2024-03-29T06:12:52;99920.15;;;19.68;53.82
56614;BME280;75854;35.670;139.690;2024-03-29T06:15:22;99927.60;;;19.40;55.20
56614;BME280;75854;35.670;139.690;2024-03-29T06:17:51;99928.90;;;19.62;54.76
56614;BME280;75854;35.670;139.690;2024-03-29T06:20:21;99937.06;;;19.38;54.46
56614;BME280;75854;35.670;139.690;2024-03-29T06:22:50;99941.21;;;19.48;54.54
56614;BME280;75854;35.670;139.690;2024-03-29T06:25:19;99943.47;;;19.61;54.46
56614;BME280;75854;35.670;139.690;2024-03-29T06:27:49;99941.16;;;19.60;53.78
56614;BME280;75854;35.670;139.690;2024-03-29T06:30:19;99940.72;;;19.24;54.11
56614;BME280;75854;35.670;139.690;2024-03-29T06:32:48;99938.77;;;19.71;54.36
56614;BME280;75854;35.670;139.690;2024-03-29T06:35:18;99942.11;;;19.16;54.17
56614;BME280;75854;35.670;139.690;2024-03-29T06:37:48;99941.75;;;19.58;53.66
56614;BME280;75854;35.670;139.690;2024-03-29T06:40:18;99942.22;;;19.23;53.56
56614;BME280;75854;35.670;139.690;2024-03-29T06:42:48;99938.60;;;19.92;52.79
56614;BME280;75854;35.670;139.690;2024-03-29T06:45:18;99943.31;;;19.80;50.92
56614;BME280;75854;35.670;139.690;2024-03-29T06:47:47;99945.83;;;19.93;51.93
56614;BME280;75854;35.670;139.690;2024-03-29T06:50:17;99948.68;;;19.23;51.41
56614;BME280;75854;35.670;139.690;2024-03-29T06:52:46;99949.40;;;19.93;52.79
56614;BME280;75854;35.670;139.690;2024-03-29T06:55:15;99937.85;;;19.74;51.25
56614;BME280;75854;35.670;139.690;2024-03-29T06:57:45;99936.69;;;20.05;51.38
56614;BME280;75854;35.670;139.690;2024-03-29T07:00:15;99937.66;;;19.72;51.68
56614;BME280;75854;35.670;139.690;2024-03-29T07:02:44;99934.06;;;20.44;51.61
56614;BME280;75854;35.670;139.690;2024-03-29T07:05:13;99936.89;;;20.18;52.38
56614;BME280;75854;35.670;139.690;2024-03-29T07:07:43;99942.11;;;20.09;52.33
56614;BME280;75854;35.670;139.690;2024-03-29T07:10:12;99941.04;;;20.11;52.01
56614;BME280;75854;35.670;139.690;2024-03-29T07:12:42;99942.74;;;20.19;51.66
56614;BME280;75854;35.670;139.690;2024-03-29T07:15:12;99943.48;;;19.96;51.20
56614;BME280;75854;35.670;139.690;2024-03-29T07:17:41;99936.06;;;20.53;50.79
56614;BME280;75854;35.670;139.690;2024-03-29T07:20:12;99931.96;;;20.24;51.24
56614;BME280;75854;35.670;139.690;2024-03-29T07:22:41;99928.54;;;20.05;50.43
56614;BME280;75854;35.670;139.690;2024-03-29T07:25:11;99924.67;;;20.01;51.11
56614;BME280;75854;35.670;139.690;2024-03-29T07:27:40;99925.28;;;20.16;51.21
56614;BME280;75854;35.670;139.690;2024-03-29T07:30:11;99934.30;;;20.01;51.02
56614;BME280;75854;35.670;139.690;2024-03-29T07:32:41;99926.24;;;19.96;50.53
56614;BME280;75854;35.670;139.690;2024-03-29T07:35:11;99926.04;;;19.89;50.43
56614;BME280;75854;35.670;139.690;2024-03-29T07:37:40;99926.90;;;19.93;50.51
56614;BME280;75854;35.670;139.690;2024-03-29T07:40:11;99930.56;;;20.04;50.58
56614;BME280;75854;35.670;139.690;2024-03-29T07:42:41;99942.26;;;20.04;50.63
56614;BME280;75854;35.670;139.690;2024-03-29T07:45:11;99952.68;;;20.15;49.47
56614;BME280;75854;35.670;139.690;2024-03-29T07:47:42;99956.60;;;19.81;50.24
56614;BME280;75854;35.670;139.690;2024-03-29T07:50:12;99960.70;;;20.01;49.04
56614;BME280;75854;35.670;139.690;2024-03-29T07:52:41;99959.87;;;19.71;49.51
56614;BME280;75854;35.670;139.690;2024-03-29T07:55:14;99961.61;;;19.86;50.42
56614;BME280;75854;35.670;139.690;2024-03-29T07:57:44;99969.26;;;20.26;50.55
56614;BME280;75854;35.670;139.690;2024-03-29T08:00:14;99973.15;;;19.97;49.01
56614;BME280;75854;35.670;139.690;2024-03-29T08:02:43;99981.16;;;19.87;49.95
56614;BME280;75854;35.670;139.690;2024-03-29T08:05:13;99979.27;;;20.07;49.37
56614;BME280;75854;35.670;139.690;2024-03-29T08:07:43;99986.85;;;19.94;49.52
56614;BME280;75854;35.670;139.690;2024-03-29T08:10:13;99991.30;;;19.99;49.95
56614;BME280;75854;35.670;139.690;2024-03-29T08:12:43;99997.40;;;20.07;49.56
56614;BME280;75854;35.670;139.690;2024-03-29T08:15:12;100001.97;;;19.96;49.73
56614;BME280;75854;35.670;139.690;2024-03-29T08:17:42;100006.71;;;19.94;48.88
56614;BME280;75854;35.670;139.690;2024-03-29T08:20:12;100018.34;;;20.59;49.18
56614;BME280;75854;35.670;139.690;2024-03-29T08:22:42;100033.13;;;20.10;49.06
56614;BME280;75854;35.670;139.690;2024-03-29T08:25:12;100036.33;;;20.08;49.83
56614;BME280;75854;35.670;139.690;2024-03-29T08:27:41;100044.18;;;19.77;49.32
56614;BME280;75854;35.670;139.690;2024-03-29T08:30:12;100048.60;;;20.29;49.22
56614;BME280;75854;35.670;139.690;2024-03-29T08:32:41;100057.32;;;19.94;48.84
56614;BME280;75854;35.670;139.690;2024-03-29T08:35:11;100065.01;;;19.70;49.11
56614;BME280;75854;35.670;139.690;2024-03-29T08:37:41;100067.60;;;19.85;49.26
56614;BME280;75854;35.670;139.690;2024-03-29T08:40:11;100068.84;;;19.92;48.76
56614;BME280;75854;35.670;139.690;2024-03-29T08:42:40;100067.23;;;19.64;49.42
56614;BME280;75854;35.670;139.690;2024-03-29T08:45:10;100068.72;;;20.08;49.04
56614;BME280;75854;35.670;139.690;2024-03-29T08:47:39;100070.16;;;19.75;49.05
56614;BME280;75854;35.670;139.690;2024-03-29T08:50:12;100078.32;;;20.19;48.75
56614;BME280;75854;35.670;139.690;2024-03-29T08:52:41;100082.69;;;19.57;49.16
56614;BME280;75854;35.670;139.690;2024-03-29T08:55:11;100091.13;;;19.82;48.94
56614;BME280;75854;35.670;139.690;2024-03-29T08:57:40;100090.11;;;19.97;49.57
56614;BME280;75854;35.670;139.690;2024-03-29T09:00:11;100095.34;;;19.79;49.62
56614;BME280;75854;35.670;139.690;2024-03-29T09:02:40;100099.08;;;19.71;49.75
56614;BME280;75854;35.670;139.690;2024-03-29T09:05:10;100104.35;;;19.42;49.86
56614;BME280;75854;35.670;139.690;2024-03-29T09:07:40;100109.69;;;19.80;49.42
56614;BME280;75854;35.670;139.690;2024-03-29T09:10:11;100109.40;;;19.86;49.28
56614;BME280;75854;35.670;139.690;2024-03-29T09:12:41;100109.37;;;19.65;49.83
56614;BME280;75854;35.670;139.690;2024-03-29T09:15:12;100112.35;;;19.48;50.46
56614;BME280;75854;35.670;139.690;2024-03-29T09:17:41;100118.33;;;19.23;50.08
56614;BME280;75854;35.670;139.690;2024-03-29T09:20:12;100119.91;;;19.65;49.45
56614;BME280;75854;35.670;139.690;2024-03-29T09:22:42;100122.20;;;19.60;49.47
56614;BME280;75854;35.670;139.690;2024-03-29T09:25:12;100127.49;;;19.67;49.50
56614;BME280;75854;35.670;139.690;2024-03-29T09:27:41;100138.82;;;19.67;49.51
56614;BME280;75854;35.670;139.690;2024-03-29T09:30:13;100144.40;;;19.40;49.56
56614;BME280;75854;35.670;139.690;2024-03-29T09:32:42;100138.59;;;19.94;48.83
56614;BME280;75854;35.670;139.690;2024-03-29T09:35:12;100139.24;;;19.50;49.60
56614;BME280;75854;35.670;139.690;2024-03-29T09:37:41;100146.60;;;19.74;49.78
56614;BME280;75854;35.670;139.690;2024-03-29T09:40:12;100153.09;;;19.83;50.26
56614;BME280;75854;35.670;139.690;2024-03-29T09:42:43;100152.51;;;19.61;50.12
56614;BME280;75854;35.670;139.690;2024-03-29T09:45:13;100153.92;;;19.43;50.24
56614;BME280;75854;35.670;139.690;2024-03-29T09:47:44;100159.16;;;19.85;49.44
56614;BME280;75854;35.670;139.690;2024-03-29T09:50:16;100163.34;;;19.18;49.98
56614;BME280;75854;35.670;139.690;2024-03-29T09:52:46;100162.35;;;19.75;50.36
56614;BME280;75854;35.670;139.690;2024-03-29T09:55:18;100172.95;;;19.80;50.06
56614;BME280;75854;35.670;139.690;2024-03-29T09:57:47;100183.72;;;19.45;50.34
56614;BME280;75854;35.670;139.690;2024-03-29T10:00:17;100188.55;;;19.16;50.59
56614;BME280;75854;35.670;139.690;2024-03-29T10:02:47;100183.71;;;19.51;50.49
56614;BME280;75854;35.670;139.690;2024-03-29T10:05:18;100186.52;;;19.33;50.60
56614;BME280;75854;35.670;139.690;2024-03-29T10:07:49;100188.70;;;19.72;50.55
56614;BME280;75854;35.670;139.690;2024-03-29T10:10:19;100194.02;;;19.19;50.68
56614;BME280;75854;35.670;139.690;2024-03-29T10:12:48;100195.50;;;19.64;50.22
56614;BME280;75854;35.670;139.690;2024-03-29T10:15:18;100191.76;;;19.14;50.64
56614;BME280;75854;35.670;139.690;2024-03-29T10:17:48;100199.24;;;19.50;50.71
56614;BME280;75854;35.670;139.690;2024-03-29T10:20:17;100199.79;;;18.92;50.97
56614;BME280;75854;35.670;139.690;2024-03-29T10:22:47;100202.51;;;19.51;50.66
56614;BME280;75854;35.670;139.690;2024-03-29T10:25:16;100207.88;;;19.03;50.32
56614;BME280;75854;35.670;139.690;2024-03-29T10:27:47;100215.78;;;19.67;50.45
56614;BME280;75854;35.670;139.690;2024-03-29T10:30:17;100223.66;;;19.20;50.56
56614;BME280;75854;35.670;139.690;2024-03-29T10:32:46;100230.87;;;19.47;50.99
56614;BME280;75854;35.670;139.690;2024-03-29T10:35:16;100232.76;;;18.91;51.00
56614;BME280;75854;35.670;139.690;2024-03-29T10:37:45;100239.25;;;19.26;52.20
56614;BME280;75854;35.670;139.690;2024-03-29T10:40:15;100239.70;;;19.31;52.01
56614;BME280;75854;35.670;139.690;2024-03-29T10:42:44;100245.57;;;19.67;52.35
56614;BME280;75854;35.670;139.690;2024-03-29T10:45:15;100254.81;;;19.24;52.12
56614;BME280;75854;35.670;139.690;2024-03-29T10:47:45;100263.30;;;19.07;51.46
56614;BME280;75854;35.670;139.690;2024-03-29T10:50:21;100265.17;;;18.84;51.20
56614;BME280;75854;35.670;139.690;2024-03-29T10:52:52;100270.25;;;19.13;51.33
56614;BME280;75854;35.670;139.690;2024-03-29T10:55:22;100275.70;;;18.64;51.62
56614;BME280;75854;35.670;139.690;2024-03-29T10:57:55;100278.47;;;19.26;51.64
56614;BME280;75854;35.670;139.690;2024-03-29T11:00:26;100276.84;;;18.77;51.71
56614;BME280;75854;35.670;139.690;2024-03-29T11:03:02;100278.39;;;18.83;51.26
56614;BME280;75854;35.670;139.690;2024-03-29T11:05:36;100287.42;;;18.98;51.72
56614;BME280;75854;35.670;139.690;2024-03-29T11:08:08;100286.42;;;18.89;51.41
56614;BME280;75854;35.670;139.690;2024-03-29T11:10:41;100289.68;;;18.72;51.65
56614;BME280;75854;35.670;139.690;2024-03-29T11:13:22;100296.36;;;19.23;52.70
56614;BME280;75854;35.670;139.690;2024-03-29T11:15:55;100297.33;;;19.23;52.48
56614;BME280;75854;35.670;139.690;2024-03-29T11:18:25;100293.70;;;18.73;52.92
56614;BME280;75854;35.670;139.690;2024-03-29T11:20:57;100302.14;;;19.20;52.24
56614;BME280;75854;35.670;139.690;2024-03-29T11:23:27;100306.42;;;18.80;51.93
56614;BME280;75854;35.670;139.690;2024-03-29T11:25:57;100310.29;;;18.98;52.98
56614;BME280;75854;35.670;139.690;2024-03-29T11:28:28;100313.68;;;18.59;52.19
56614;BME280;75854;35.670;139.690;2024-03-29T11:31:01;100328.43;;;19.10;52.98
56614;BME280;75854;35.670;139.690;2024-03-29T11:33:32;100336.93;;;18.66;52.49
56614;BME280;75854;35.670;139.690;2024-03-29T11:36:12;100340.36;;;19.04;51.88
56614;BME280;75854;35.670;139.690;2024-03-29T11:38:42;100344.83;;;19.07;52.54
56614;BME280;75854;35.670;139.690;2024-03-29T11:41:13;100351.39;;;19.09;52.26
56614;BME280;75854;35.670;139.690;2024-03-29T11:43:43;100360.44;;;19.08;51.89
56614;BME280;75854;35.670;139.690;2024-03-29T11:46:13;100364.00;;;18.91;51.75
56614;BME280;75854;35.670;139.690;2024-03-29T11:48:43;100367.71;;;18.92;52.11
56614;BME280;75854;35.670;139.690;2024-03-29T11:51:16;100368.53;;;18.96;53.24
56614;BME280;75854;35.670;139.690;2024-03-29T11:53:46;100371.02;;;18.86;51.56
56614;BME280;75854;35.670;139.690;2024-03-29T11:56:15;100376.97;;;18.27;52.29
56614;BME280;75854;35.670;139.690;2024-03-29T11:58:45;100374.46;;;18.79;52.37
56614;BME280;75854;35.670;139.690;2024-03-29T12:01:15;100383.29;;;18.21;53.80
56614;BME280;75854;35.670;139.690;2024-03-29T12:03:44;100377.45;;;18.72;52.78
56614;BME280;75854;35.670;139.690;2024-03-29T12:06:14;100379.37;;;18.19;52.57
56614;BME280;75854;35.670;139.690;2024-03-29T12:08:44;100377.81;;;18.41;53.75
56614;BME280;75854;35.670;139.690;2024-03-29T12:11:13;100377.70;;;18.46;53.12
56614;BME280;75854;35.670;139.690;2024-03-29T12:13:43;100380.07;;;18.22;55.13
56614;BME280;75854;35.670;139.690;2024-03-29T12:16:13;100378.40;;;18.19;54.81
56614;BME280;75854;35.670;139.690;2024-03-29T12:18:46;100380.62;;;18.47;54.09
56614;BME280;75854;35.670;139.690;2024-03-29T12:21:16;100387.14;;;18.02;53.78
56614;BME280;75854;35.670;139.690;2024-03-29T12:23:49;100389.55;;;18.79;53.16
56614;BME280;75854;35.670;139.690;2024-03-29T12:26:18;100394.75;;;18.37;53.17
56614;BME280;75854;35.670;139.690;2024-03-29T12:28:49;100396.23;;;18.79;53.91
56614;BME280;75854;35.670;139.690;2024-03-29T12:31:19;100398.08;;;18.05;54.20
56614;BME280;75854;35.670;139.690;2024-03-29T12:33:56;100402.13;;;18.31;53.66
56614;BME280;75854;35.670;139.690;2024-03-29T12:36:26;100404.76;;;18.50;53.65
56614;BME280;75854;35.670;139.690;2024-03-29T12:38:56;100406.38;;;18.55;53.73
56614;BME280;75854;35.670;139.690;2024-03-29T12:41:29;100410.28;;;18.44;54.13
56614;BME280;75854;35.670;139.690;2024-03-29T12:43:58;100414.45;;;18.86;53.52
56614;BME280;75854;35.670;139.690;2024-03-29T12:46:29;100407.77;;;18.39;53.88
56614;BME280;75854;35.670;139.690;2024-03-29T12:49:00;100404.87;;;18.86;53.54